Cooper, Maine
Current Conditions -  °F | °C
As of 2:15 PM on Saturday 25 Oct 2014 (Local Time) from KBHB Reporting Station
Clear Clear  
Wind Chill: 57°   Ceiling: Unl
Heat Index: 57°   Visibility: 10mi
Dew Point: 37°   Wind: 3mph
Humidity: 48%   Direction: 340°NNW
Pressure: 29.57"   Gusts: NA
Location:  44.9999°N, 67.3852°W
Report Text: KBHB 251815Z AUTO 34003KT 10SM CLR 14/03 A2957 RMK AO1
Loading
Personal Weather Stations






























Interactive Weather Map
Tropical Storm Tracking
New forecast layout! Learn more

10-Day Weather Forecast

Advertisements
Track Severe Weather on mobile